sensor_id;sensor_type;location;lat;lon;timestamp;pressure;altitude;pressure_sealevel;temperature;humidity
19576;BME280;41589;51.196;7.074;2023-05-16T00:04:07;98914.50;;;12.67;78.14
19576;BME280;41589;51.196;7.074;2023-05-16T00:09:18;98910.50;;;12.59;78.49
19576;BME280;41589;51.196;7.074;2023-05-16T00:14:21;98914.25;;;12.80;78.32
19576;BME280;41589;51.196;7.074;2023-05-16T00:19:21;98919.66;;;12.69;78.42
19576;BME280;41589;51.196;7.074;2023-05-16T00:24:22;98912.22;;;12.57;77.72
19576;BME280;41589;51.196;7.074;2023-05-16T00:29:23;98930.56;;;12.61;78.88
19576;BME280;41589;51.196;7.074;2023-05-16T00:34:27;98928.66;;;12.34;78.39
19576;BME280;41589;51.196;7.074;2023-05-16T00:39:28;98939.84;;;12.29;78.92
19576;BME280;41589;51.196;7.074;2023-05-16T00:44:30;98942.41;;;12.18;78.75
19576;BME280;41589;51.196;7.074;2023-05-16T00:49:30;98946.47;;;12.16;78.71
19576;BME280;41589;51.196;7.074;2023-05-16T00:54:34;98949.78;;;12.15;78.65
19576;BME280;41589;51.196;7.074;2023-05-16T00:59:43;98951.44;;;11.98;78.39
19576;BME280;41589;51.196;7.074;2023-05-16T01:04:54;98941.94;;;11.86;77.76
19576;BME280;41589;51.196;7.074;2023-05-16T01:09:56;98952.19;;;11.65;80.20
19576;BME280;41589;51.196;7.074;2023-05-16T01:15:04;98961.44;;;11.56;80.57
19576;BME280;41589;51.196;7.074;2023-05-16T01:20:30;98959.09;;;11.55;79.92
19576;BME280;41589;51.196;7.074;2023-05-16T01:30:43;98970.69;;;11.48;79.31
19576;BME280;41589;51.196;7.074;2023-05-16T01:35:52;98958.78;;;11.44;80.21
19576;BME280;41589;51.196;7.074;2023-05-16T01:41:22;98972.72;;;11.47;79.82
19576;BME280;41589;51.196;7.074;2023-05-16T01:46:26;98977.63;;;11.19;78.90
19576;BME280;41589;51.196;7.074;2023-05-16T01:51:31;98979.00;;;11.15;79.41
19576;BME280;41589;51.196;7.074;2023-05-16T01:56:39;98983.09;;;11.05;79.45
19576;BME280;41589;51.196;7.074;2023-05-16T02:01:41;98999.19;;;11.04;79.30
19576;BME280;41589;51.196;7.074;2023-05-16T02:06:41;98999.69;;;11.03;79.27
19576;BME280;41589;51.196;7.074;2023-05-16T02:11:42;98998.72;;;10.96;78.83
19576;BME280;41589;51.196;7.074;2023-05-16T02:16:42;99017.16;;;10.79;79.16
19576;BME280;41589;51.196;7.074;2023-05-16T02:21:43;99013.41;;;10.73;78.31
19576;BME280;41589;51.196;7.074;2023-05-16T02:26:48;99015.69;;;10.47;79.71
19576;BME280;41589;51.196;7.074;2023-05-16T02:31:51;99036.50;;;10.19;81.70
19576;BME280;41589;51.196;7.074;2023-05-16T02:36:52;99034.16;;;10.17;83.47
19576;BME280;41589;51.196;7.074;2023-05-16T02:41:55;99048.00;;;10.02;83.35
19576;BME280;41589;51.196;7.074;2023-05-16T02:46:59;99053.91;;;9.95;84.23
19576;BME280;41589;51.196;7.074;2023-05-16T02:51:59;99065.53;;;9.63;83.77
19576;BME280;41589;51.196;7.074;2023-05-16T02:57:00;99055.16;;;9.72;85.11
19576;BME280;41589;51.196;7.074;2023-05-16T03:02:00;99075.09;;;9.65;84.67
19576;BME280;41589;51.196;7.074;2023-05-16T03:07:04;99061.88;;;9.75;84.63
19576;BME280;41589;51.196;7.074;2023-05-16T03:12:04;99068.56;;;9.90;84.69
19576;BME280;41589;51.196;7.074;2023-05-16T03:17:05;99074.09;;;10.03;84.24
19576;BME280;41589;51.196;7.074;2023-05-16T03:22:05;99075.81;;;10.00;82.46
19576;BME280;41589;51.196;7.074;2023-05-16T03:27:06;99077.38;;;10.01;82.81
19576;BME280;41589;51.196;7.074;2023-05-16T03:32:10;99079.31;;;9.26;92.45
19576;BME280;41589;51.196;7.074;2023-05-16T03:37:11;99079.03;;;9.68;87.65
19576;BME280;41589;51.196;7.074;2023-05-16T03:42:14;99088.66;;;9.67;85.73
19576;BME280;41589;51.196;7.074;2023-05-16T03:47:14;99091.94;;;9.65;87.38
19576;BME280;41589;51.196;7.074;2023-05-16T03:52:18;99097.78;;;9.49;87.24
19576;BME280;41589;51.196;7.074;2023-05-16T03:57:48;99117.50;;;9.36;88.52
19576;BME280;41589;51.196;7.074;2023-05-16T04:02:50;99115.56;;;9.33;89.83
19576;BME280;41589;51.196;7.074;2023-05-16T04:07:51;99115.25;;;9.31;89.61
19576;BME280;41589;51.196;7.074;2023-05-16T04:12:57;99120.41;;;9.33;89.91
19576;BME280;41589;51.196;7.074;2023-05-16T04:18:03;99139.97;;;9.23;90.08
19576;BME280;41589;51.196;7.074;2023-05-16T04:23:06;99130.34;;;9.12;90.52
19576;BME280;41589;51.196;7.074;2023-05-16T04:28:13;99145.59;;;9.23;91.08
19576;BME280;41589;51.196;7.074;2023-05-16T04:33:18;99157.56;;;8.89;90.93
19576;BME280;41589;51.196;7.074;2023-05-16T04:38:24;99159.59;;;8.89;93.19
19576;BME280;41589;51.196;7.074;2023-05-16T04:43:28;99166.09;;;8.60;92.62
19576;BME280;41589;51.196;7.074;2023-05-16T04:48:32;99180.00;;;8.51;93.83
19576;BME280;41589;51.196;7.074;2023-05-16T04:53:33;99182.41;;;8.65;95.82
19576;BME280;41589;51.196;7.074;2023-05-16T04:58:38;99182.16;;;8.73;96.48
19576;BME280;41589;51.196;7.074;2023-05-16T05:03:38;99188.47;;;8.77;97.59
19576;BME280;41589;51.196;7.074;2023-05-16T05:08:39;99200.59;;;8.74;97.28
19576;BME280;41589;51.196;7.074;2023-05-16T05:13:40;99205.28;;;8.64;97.72
19576;BME280;41589;51.196;7.074;2023-05-16T05:18:48;99216.16;;;8.62;97.91
19576;BME280;41589;51.196;7.074;2023-05-16T05:23:48;99218.09;;;8.65;98.80
19576;BME280;41589;51.196;7.074;2023-05-16T05:28:48;99234.47;;;8.66;98.92
19576;BME280;41589;51.196;7.074;2023-05-16T05:33:51;99235.94;;;8.71;99.61
19576;BME280;41589;51.196;7.074;2023-05-16T05:38:52;99237.28;;;8.54;100.00
19576;BME280;41589;51.196;7.074;2023-05-16T05:43:52;99246.28;;;8.87;99.81
19576;BME280;41589;51.196;7.074;2023-05-16T05:48:52;99247.19;;;8.96;100.00
19576;BME280;41589;51.196;7.074;2023-05-16T05:53:53;99248.75;;;8.97;100.00
19576;BME280;41589;51.196;7.074;2023-05-16T05:58:53;99253.00;;;9.27;100.00
19576;BME280;41589;51.196;7.074;2023-05-16T06:03:56;99253.13;;;9.37;100.00
19576;BME280;41589;51.196;7.074;2023-05-16T06:08:57;99260.56;;;9.65;100.00
19576;BME280;41589;51.196;7.074;2023-05-16T06:13:57;99276.22;;;9.53;100.00
19576;BME280;41589;51.196;7.074;2023-05-16T06:18:58;99279.97;;;9.98;100.00
19576;BME280;41589;51.196;7.074;2023-05-16T06:23:59;99286.75;;;9.75;100.00
19576;BME280;41589;51.196;7.074;2023-05-16T06:28:59;99280.06;;;9.34;97.82
19576;BME280;41589;51.196;7.074;2023-05-16T06:33:59;99297.63;;;9.38;96.76
19576;BME280;41589;51.196;7.074;2023-05-16T06:39:00;99309.66;;;9.26;96.30
19576;BME280;41589;51.196;7.074;2023-05-16T06:44:00;99312.91;;;9.37;99.20
19576;BME280;41589;51.196;7.074;2023-05-16T06:49:00;99293.97;;;9.63;100.00
19576;BME280;41589;51.196;7.074;2023-05-16T06:54:01;99296.28;;;10.03;100.00
19576;BME280;41589;51.196;7.074;2023-05-16T06:59:01;99289.84;;;10.37;100.00
19576;BME280;41589;51.196;7.074;2023-05-16T07:04:02;99296.41;;;9.87;96.84
19576;BME280;41589;51.196;7.074;2023-05-16T07:09:04;99311.41;;;9.83;98.89
19576;BME280;41589;51.196;7.074;2023-05-16T07:14:05;99324.81;;;9.41;95.34
19576;BME280;41589;51.196;7.074;2023-05-16T07:19:05;99312.09;;;9.49;96.61
19576;BME280;41589;51.196;7.074;2023-05-16T07:24:05;99309.25;;;9.88;99.82
19576;BME280;41589;51.196;7.074;2023-05-16T07:29:06;99316.78;;;10.25;100.00
19576;BME280;41589;51.196;7.074;2023-05-16T07:34:08;99313.19;;;10.25;97.89
19576;BME280;41589;51.196;7.074;2023-05-16T07:39:09;99323.19;;;10.26;95.33
19576;BME280;41589;51.196;7.074;2023-05-16T07:44:09;99323.66;;;10.24;96.82
19576;BME280;41589;51.196;7.074;2023-05-16T07:49:10;99326.56;;;9.99;94.88
19576;BME280;41589;51.196;7.074;2023-05-16T07:54:10;99335.88;;;9.96;94.85
19576;BME280;41589;51.196;7.074;2023-05-16T07:59:10;99324.59;;;10.43;99.88
19576;BME280;41589;51.196;7.074;2023-05-16T08:04:11;99328.72;;;10.73;94.43
19576;BME280;41589;51.196;7.074;2023-05-16T08:09:11;99327.19;;;10.59;97.01
19576;BME280;41589;51.196;7.074;2023-05-16T08:14:12;99330.28;;;10.74;95.07
19576;BME280;41589;51.196;7.074;2023-05-16T08:19:12;99326.41;;;11.03;92.90
19576;BME280;41589;51.196;7.074;2023-05-16T08:24:13;99336.16;;;11.42;90.97
19576;BME280;41589;51.196;7.074;2023-05-16T08:29:13;99333.44;;;11.29;88.77
19576;BME280;41589;51.196;7.074;2023-05-16T08:34:13;99330.97;;;11.80;89.55
19576;BME280;41589;51.196;7.074;2023-05-16T08:39:14;99330.06;;;12.11;87.09
19576;BME280;41589;51.196;7.074;2023-05-16T08:44:14;99331.06;;;12.63;87.07
19576;BME280;41589;51.196;7.074;2023-05-16T08:49:20;99331.66;;;12.58;85.13
19576;BME280;41589;51.196;7.074;2023-05-16T08:54:23;99340.28;;;12.36;84.06
19576;BME280;41589;51.196;7.074;2023-05-16T08:59:23;99342.03;;;12.61;84.07
19576;BME280;41589;51.196;7.074;2023-05-16T09:04:24;99329.41;;;12.98;83.18
19576;BME280;41589;51.196;7.074;2023-05-16T09:09:26;99330.38;;;13.47;83.79
19576;BME280;41589;51.196;7.074;2023-05-16T09:14:26;99319.06;;;14.04;80.42
19576;BME280;41589;51.196;7.074;2023-05-16T09:19:32;99336.72;;;13.75;76.48
19576;BME280;41589;51.196;7.074;2023-05-16T09:24:40;99333.44;;;13.25;74.66
19576;BME280;41589;51.196;7.074;2023-05-16T09:29:42;99336.06;;;12.77;73.61
19576;BME280;41589;51.196;7.074;2023-05-16T09:34:48;99341.38;;;12.93;77.03
19576;BME280;41589;51.196;7.074;2023-05-16T09:39:52;99341.97;;;12.97;73.01
19576;BME280;41589;51.196;7.074;2023-05-16T09:44:54;99335.41;;;12.91;71.74
19576;BME280;41589;51.196;7.074;2023-05-16T09:50:05;99336.81;;;13.80;71.39
19576;BME280;41589;51.196;7.074;2023-05-16T09:55:07;99337.00;;;13.77;65.89
19576;BME280;41589;51.196;7.074;2023-05-16T10:00:10;99342.88;;;14.60;69.48
19576;BME280;41589;51.196;7.074;2023-05-16T10:05:12;99322.72;;;14.82;61.53
19576;BME280;41589;51.196;7.074;2023-05-16T10:10:12;99332.00;;;14.97;61.26
19576;BME280;41589;51.196;7.074;2023-05-16T10:15:14;99331.06;;;15.65;62.23
19576;BME280;41589;51.196;7.074;2023-05-16T10:20:15;99323.47;;;15.91;56.25
19576;BME280;41589;51.196;7.074;2023-05-16T10:25:21;99323.38;;;15.36;54.50
19576;BME280;41589;51.196;7.074;2023-05-16T10:30:28;99339.44;;;14.80;55.44
19576;BME280;41589;51.196;7.074;2023-05-16T10:35:30;99331.56;;;14.60;55.97
19576;BME280;41589;51.196;7.074;2023-05-16T10:40:30;99326.78;;;15.40;56.79
19576;BME280;41589;51.196;7.074;2023-05-16T10:45:31;99327.22;;;15.33;53.87
19576;BME280;41589;51.196;7.074;2023-05-16T10:50:36;99334.53;;;14.80;52.92
19576;BME280;41589;51.196;7.074;2023-05-16T10:55:50;99315.38;;;15.19;59.63
19576;BME280;41589;51.196;7.074;2023-05-16T11:27:34;99355.44;;;14.83;54.75
19576;BME280;41589;51.196;7.074;2023-05-16T11:32:38;99354.25;;;14.74;53.50
19576;BME280;41589;51.196;7.074;2023-05-16T11:37:42;99348.91;;;14.53;53.20
19576;BME280;41589;51.196;7.074;2023-05-16T11:42:45;99359.03;;;14.44;53.36
19576;BME280;41589;51.196;7.074;2023-05-16T11:47:46;99356.44;;;14.56;54.54
19576;BME280;41589;51.196;7.074;2023-05-16T11:52:48;99360.63;;;14.69;54.16
19576;BME280;41589;51.196;7.074;2023-05-16T11:57:53;99356.72;;;14.96;53.29
19576;BME280;41589;51.196;7.074;2023-05-16T12:02:58;99352.44;;;15.01;53.37
19576;BME280;41589;51.196;7.074;2023-05-16T12:08:00;99349.41;;;15.34;52.43
19576;BME280;41589;51.196;7.074;2023-05-16T12:13:02;99344.03;;;15.21;50.75
19576;BME280;41589;51.196;7.074;2023-05-16T12:18:03;99350.00;;;14.94;48.86
19576;BME280;41589;51.196;7.074;2023-05-16T12:23:03;99348.72;;;14.56;49.58
19576;BME280;41589;51.196;7.074;2023-05-16T12:28:04;99357.34;;;14.62;50.61
19576;BME280;41589;51.196;7.074;2023-05-16T12:33:09;99358.94;;;14.39;50.11
19576;BME280;41589;51.196;7.074;2023-05-16T12:38:11;99363.41;;;14.31;51.35
19576;BME280;41589;51.196;7.074;2023-05-16T12:43:16;99356.63;;;14.52;52.04
19576;BME280;41589;51.196;7.074;2023-05-16T12:48:18;99355.44;;;14.83;52.85
19576;BME280;41589;51.196;7.074;2023-05-16T12:53:21;99345.00;;;15.03;51.38
19576;BME280;41589;51.196;7.074;2023-05-16T12:58:24;99332.88;;;15.33;49.28
19576;BME280;41589;51.196;7.074;2023-05-16T13:03:25;99345.84;;;15.54;49.67
19576;BME280;41589;51.196;7.074;2023-05-16T13:08:26;99349.13;;;15.82;47.89
19576;BME280;41589;51.196;7.074;2023-05-16T13:13:27;99336.84;;;16.05;46.12
19576;BME280;41589;51.196;7.074;2023-05-16T13:18:28;99330.56;;;16.22;44.78
19576;BME280;41589;51.196;7.074;2023-05-16T13:23:28;99340.16;;;16.65;45.98
19576;BME280;41589;51.196;7.074;2023-05-16T13:28:29;99343.16;;;16.56;41.13
19576;BME280;41589;51.196;7.074;2023-05-16T13:33:29;99334.31;;;16.74;43.29
19576;BME280;41589;51.196;7.074;2023-05-16T13:38:32;99327.31;;;16.49;41.84
19576;BME280;41589;51.196;7.074;2023-05-16T13:43:33;99342.16;;;16.18;41.25
19576;BME280;41589;51.196;7.074;2023-05-16T13:48:34;99340.78;;;16.34;42.53
19576;BME280;41589;51.196;7.074;2023-05-16T13:53:34;99330.69;;;16.53;41.01
19576;BME280;41589;51.196;7.074;2023-05-16T13:58:35;99341.28;;;16.53;39.93
19576;BME280;41589;51.196;7.074;2023-05-16T14:03:35;99336.69;;;16.55;37.31
19576;BME280;41589;51.196;7.074;2023-05-16T14:08:36;99341.75;;;16.66;39.62
19576;BME280;41589;51.196;7.074;2023-05-16T14:13:36;99352.16;;;16.34;37.93
19576;BME280;41589;51.196;7.074;2023-05-16T14:18:37;99353.25;;;15.81;37.98
19576;BME280;41589;51.196;7.074;2023-05-16T14:23:38;99356.44;;;16.03;39.69
19576;BME280;41589;51.196;7.074;2023-05-16T14:28:48;99362.25;;;15.79;38.99
19576;BME280;41589;51.196;7.074;2023-05-16T14:33:52;99357.28;;;15.74;40.44
19576;BME280;41589;51.196;7.074;2023-05-16T14:38:53;99352.88;;;15.58;40.60
19576;BME280;41589;51.196;7.074;2023-05-16T14:44:05;99358.38;;;15.62;40.80
19576;BME280;41589;51.196;7.074;2023-05-16T14:49:06;99367.25;;;15.84;40.31
19576;BME280;41589;51.196;7.074;2023-05-16T14:54:12;99381.00;;;15.92;40.02
19576;BME280;41589;51.196;7.074;2023-05-16T14:59:14;99381.47;;;15.70;40.84
19576;BME280;41589;51.196;7.074;2023-05-16T15:04:14;99385.75;;;15.50;40.09
19576;BME280;41589;51.196;7.074;2023-05-16T15:09:15;99382.38;;;15.31;40.00
19576;BME280;41589;51.196;7.074;2023-05-16T15:14:18;99382.84;;;15.45;39.85
19576;BME280;41589;51.196;7.074;2023-05-16T15:19:21;99383.50;;;15.54;40.66
19576;BME280;41589;51.196;7.074;2023-05-16T15:24:26;99383.50;;;15.40;41.23
19576;BME280;41589;51.196;7.074;2023-05-16T15:29:27;99405.16;;;15.52;41.16
19576;BME280;41589;51.196;7.074;2023-05-16T15:34:27;99409.03;;;15.40;39.27
19576;BME280;41589;51.196;7.074;2023-05-16T15:39:28;99419.78;;;15.06;40.13
19576;BME280;41589;51.196;7.074;2023-05-16T15:44:31;99417.31;;;14.60;40.21
19576;BME280;41589;51.196;7.074;2023-05-16T15:49:34;99422.44;;;14.47;41.29
19576;BME280;41589;51.196;7.074;2023-05-16T15:54:39;99437.69;;;14.73;41.37
19576;BME280;41589;51.196;7.074;2023-05-16T15:59:39;99446.06;;;14.92;41.94
19576;BME280;41589;51.196;7.074;2023-05-16T16:04:40;99440.09;;;14.90;41.47
19576;BME280;41589;51.196;7.074;2023-05-16T16:09:43;99452.22;;;15.05;41.39
19576;BME280;41589;51.196;7.074;2023-05-16T16:14:45;99446.91;;;14.83;41.19
19576;BME280;41589;51.196;7.074;2023-05-16T16:19:48;99458.41;;;14.56;42.30
19576;BME280;41589;51.196;7.074;2023-05-16T16:24:49;99453.22;;;14.54;42.73
19576;BME280;41589;51.196;7.074;2023-05-16T16:29:50;99462.41;;;14.49;43.07
19576;BME280;41589;51.196;7.074;2023-05-16T16:34:50;99460.34;;;14.26;43.19
19576;BME280;41589;51.196;7.074;2023-05-16T16:39:51;99463.22;;;14.16;42.59
19576;BME280;41589;51.196;7.074;2023-05-16T16:44:52;99466.31;;;14.52;43.34
19576;BME280;41589;51.196;7.074;2023-05-16T16:49:56;99469.25;;;14.33;43.63
19576;BME280;41589;51.196;7.074;2023-05-16T16:54:56;99464.25;;;14.28;44.29
19576;BME280;41589;51.196;7.074;2023-05-16T16:59:57;99468.94;;;14.31;44.84
19576;BME280;41589;51.196;7.074;2023-05-16T17:04:59;99461.66;;;14.15;45.57
19576;BME280;41589;51.196;7.074;2023-05-16T17:09:59;99472.75;;;13.95;45.68
19576;BME280;41589;51.196;7.074;2023-05-16T17:15:00;99482.97;;;13.83;45.53
19576;BME280;41589;51.196;7.074;2023-05-16T17:20:08;99475.66;;;13.68;45.80
19576;BME280;41589;51.196;7.074;2023-05-16T17:25:11;99491.66;;;13.80;45.91
19576;BME280;41589;51.196;7.074;2023-05-16T17:30:15;99493.69;;;13.79;45.78
19576;BME280;41589;51.196;7.074;2023-05-16T17:35:16;99490.91;;;13.61;45.88
19576;BME280;41589;51.196;7.074;2023-05-16T17:40:17;99499.38;;;13.70;45.38
19576;BME280;41589;51.196;7.074;2023-05-16T17:45:21;99510.69;;;13.52;45.91
19576;BME280;41589;51.196;7.074;2023-05-16T17:50:21;99509.75;;;13.55;47.16
19576;BME280;41589;51.196;7.074;2023-05-16T17:55:22;99511.81;;;13.45;47.38
19576;BME280;41589;51.196;7.074;2023-05-16T18:00:23;99508.69;;;13.43;47.62
19576;BME280;41589;51.196;7.074;2023-05-16T18:05:24;99502.69;;;13.41;48.04
19576;BME280;41589;51.196;7.074;2023-05-16T18:10:24;99510.09;;;13.39;48.52
19576;BME280;41589;51.196;7.074;2023-05-16T18:15:29;99520.63;;;13.29;48.47
19576;BME280;41589;51.196;7.074;2023-05-16T18:20:30;99521.25;;;13.33;48.97
19576;BME280;41589;51.196;7.074;2023-05-16T18:25:30;99521.09;;;13.37;49.02
19576;BME280;41589;51.196;7.074;2023-05-16T18:30:33;99526.28;;;13.29;49.26
19576;BME280;41589;51.196;7.074;2023-05-16T18:35:34;99515.63;;;13.24;49.36
19576;BME280;41589;51.196;7.074;2023-05-16T18:40:35;99525.66;;;13.16;49.54
19576;BME280;41589;51.196;7.074;2023-05-16T18:45:35;99518.91;;;13.22;49.43
19576;BME280;41589;51.196;7.074;2023-05-16T18:50:39;99524.69;;;13.10;49.51
19576;BME280;41589;51.196;7.074;2023-05-16T18:55:42;99534.59;;;12.96;50.29
19576;BME280;41589;51.196;7.074;2023-05-16T19:00:43;99547.59;;;12.84;50.58
19576;BME280;41589;51.196;7.074;2023-05-16T19:05:43;99525.78;;;12.85;50.90
19576;BME280;41589;51.196;7.074;2023-05-16T19:10:53;99525.97;;;12.90;50.90
19576;BME280;41589;51.196;7.074;2023-05-16T19:16:06;99543.22;;;12.92;51.14
19576;BME280;41589;51.196;7.074;2023-05-16T19:21:06;99544.31;;;12.95;51.67
19576;BME280;41589;51.196;7.074;2023-05-16T19:26:10;99548.91;;;13.01;51.73
19576;BME280;41589;51.196;7.074;2023-05-16T19:31:11;99560.34;;;13.07;51.75
19576;BME280;41589;51.196;7.074;2023-05-16T19:36:15;99567.72;;;12.95;51.32
19576;BME280;41589;51.196;7.074;2023-05-16T19:41:16;99556.09;;;12.84;51.11
19576;BME280;41589;51.196;7.074;2023-05-16T19:46:20;99557.91;;;12.69;50.97
19576;BME280;41589;51.196;7.074;2023-05-16T19:51:23;99565.16;;;12.70;50.95
19576;BME280;41589;51.196;7.074;2023-05-16T19:56:27;99573.03;;;12.84;50.87
19576;BME280;41589;51.196;7.074;2023-05-16T20:01:35;99576.47;;;12.70;50.94
19576;BME280;41589;51.196;7.074;2023-05-16T20:06:39;99581.16;;;12.73;50.78
19576;BME280;41589;51.196;7.074;2023-05-16T20:11:40;99573.94;;;12.72;50.82
19576;BME280;41589;51.196;7.074;2023-05-16T20:16:44;99585.84;;;12.67;50.61
19576;BME280;41589;51.196;7.074;2023-05-16T20:21:47;99585.84;;;12.67;50.89
19576;BME280;41589;51.196;7.074;2023-05-16T20:27:32;99600.41;;;12.56;50.92
19576;BME280;41589;51.196;7.074;2023-05-16T20:33:16;99609.50;;;12.51;51.17
19576;BME280;41589;51.196;7.074;2023-05-16T20:38:31;99608.63;;;12.41;51.27
19576;BME280;41589;51.196;7.074;2023-05-16T20:43:39;99592.94;;;12.40;51.64
19576;BME280;41589;51.196;7.074;2023-05-16T20:48:52;99599.19;;;12.35;51.67
19576;BME280;41589;51.196;7.074;2023-05-16T20:54:11;99593.50;;;12.26;52.11
19576;BME280;41589;51.196;7.074;2023-05-16T20:59:15;99608.28;;;12.30;52.21
19576;BME280;41589;51.196;7.074;2023-05-16T21:04:26;99600.22;;;12.20;52.29
19576;BME280;41589;51.196;7.074;2023-05-16T21:09:32;99599.91;;;12.18;52.53
19576;BME280;41589;51.196;7.074;2023-05-16T21:14:39;99606.66;;;12.20;52.65
19576;BME280;41589;51.196;7.074;2023-05-16T21:20:04;99606.47;;;12.14;52.88
19576;BME280;41589;51.196;7.074;2023-05-16T21:25:30;99605.88;;;12.20;53.09
19576;BME280;41589;51.196;7.074;2023-05-16T21:30:30;99605.03;;;12.10;53.07
19576;BME280;41589;51.196;7.074;2023-05-16T21:35:34;99608.13;;;12.03;53.67
19576;BME280;41589;51.196;7.074;2023-05-16T21:40:45;99600.13;;;12.01;53.60
19576;BME280;41589;51.196;7.074;2023-05-16T21:45:55;99607.59;;;11.95;54.12
19576;BME280;41589;51.196;7.074;2023-05-16T21:51:07;99616.28;;;11.79;54.68
19576;BME280;41589;51.196;7.074;2023-05-16T21:56:07;99604.78;;;11.73;54.94
19576;BME280;41589;51.196;7.074;2023-05-16T22:01:18;99614.25;;;11.57;55.38
19576;BME280;41589;51.196;7.074;2023-05-16T22:06:27;99623.50;;;11.58;55.62
19576;BME280;41589;51.196;7.074;2023-05-16T22:11:33;99616.84;;;11.52;55.99
19576;BME280;41589;51.196;7.074;2023-05-16T22:16:33;99616.34;;;11.44;56.47
19576;BME280;41589;51.196;7.074;2023-05-16T22:21:40;99625.50;;;11.36;56.90
19576;BME280;41589;51.196;7.074;2023-05-16T22:26:41;99624.50;;;11.29;56.92
19576;BME280;41589;51.196;7.074;2023-05-16T22:31:44;99618.53;;;11.27;57.21
19576;BME280;41589;51.196;7.074;2023-05-16T22:36:47;99623.91;;;11.35;57.12
19576;BME280;41589;51.196;7.074;2023-05-16T22:41:53;99636.09;;;11.32;57.59
19576;BME280;41589;51.196;7.074;2023-05-16T22:47:07;99626.53;;;11.16;57.46
19576;BME280;41589;51.196;7.074;2023-05-16T22:52:13;99640.41;;;11.23;57.77
19576;BME280;41589;51.196;7.074;2023-05-16T22:57:16;99637.13;;;11.12;57.71
19576;BME280;41589;51.196;7.074;2023-05-16T23:02:17;99630.50;;;11.06;57.91
19576;BME280;41589;51.196;7.074;2023-05-16T23:07:18;99637.72;;;11.07;57.90
19576;BME280;41589;51.196;7.074;2023-05-16T23:12:19;99636.91;;;11.07;58.25
19576;BME280;41589;51.196;7.074;2023-05-16T23:17:23;99629.63;;;10.96;58.63
19576;BME280;41589;51.196;7.074;2023-05-16T23:22:31;99651.47;;;11.05;58.84
19576;BME280;41589;51.196;7.074;2023-05-16T23:27:45;99646.28;;;11.04;58.88
19576;BME280;41589;51.196;7.074;2023-05-16T23:32:59;99649.91;;;11.04;59.16
19576;BME280;41589;51.196;7.074;2023-05-16T23:38:03;99646.66;;;10.93;59.31
19576;BME280;41589;51.196;7.074;2023-05-16T23:43:06;99642.94;;;10.83;59.59
19576;BME280;41589;51.196;7.074;2023-05-16T23:48:09;99649.00;;;10.69;60.37
19576;BME280;41589;51.196;7.074;2023-05-16T23:53:10;99652.16;;;10.71;60.92
19576;BME280;41589;51.196;7.074;2023-05-16T23:58:10;99663.88;;;10.69;61.14
